sensor_id;sensor_type;location;lat;lon;timestamp;P1;durP1;ratioP1;P2;durP2;ratioP2
79779;SDS011;69258;52.050;10.334;2023-11-21T00:04:34;1.73;;;1.47;;
79779;SDS011;69258;52.050;10.334;2023-11-21T00:19:35;2.37;;;1.60;;
79779;SDS011;69258;52.050;10.334;2023-11-21T00:34:37;2.13;;;1.53;;
79779;SDS011;69258;52.050;10.334;2023-11-21T00:49:40;1.97;;;1.57;;
79779;SDS011;69258;52.050;10.334;2023-11-21T01:04:43;3.27;;;1.70;;
79779;SDS011;69258;52.050;10.334;2023-11-21T01:19:46;3.23;;;1.70;;
79779;SDS011;69258;52.050;10.334;2023-11-21T01:34:50;2.43;;;1.50;;
79779;SDS011;69258;52.050;10.334;2023-11-21T01:49:52;2.47;;;1.60;;
79779;SDS011;69258;52.050;10.334;2023-11-21T02:04:54;2.47;;;1.60;;
79779;SDS011;69258;52.050;10.334;2023-11-21T02:19:57;3.00;;;1.50;;
79779;SDS011;69258;52.050;10.334;2023-11-21T02:35:00;3.70;;;1.90;;
79779;SDS011;69258;52.050;10.334;2023-11-21T02:50:03;3.80;;;1.70;;
79779;SDS011;69258;52.050;10.334;2023-11-21T03:05:06;3.53;;;2.00;;
79779;SDS011;69258;52.050;10.334;2023-11-21T03:20:10;3.33;;;1.90;;
79779;SDS011;69258;52.050;10.334;2023-11-21T03:35:13;4.63;;;1.63;;
79779;SDS011;69258;52.050;10.334;2023-11-21T03:50:16;2.87;;;1.70;;
79779;SDS011;69258;52.050;10.334;2023-11-21T04:05:17;3.33;;;1.60;;
79779;SDS011;69258;52.050;10.334;2023-11-21T04:20:22;6.27;;;1.90;;
79779;SDS011;69258;52.050;10.334;2023-11-21T04:35:24;2.30;;;1.47;;
79779;SDS011;69258;52.050;10.334;2023-11-21T04:50:27;2.17;;;1.40;;
79779;SDS011;69258;52.050;10.334;2023-11-21T05:05:30;7.57;;;1.40;;
79779;SDS011;69258;52.050;10.334;2023-11-21T05:20:32;4.73;;;1.80;;
79779;SDS011;69258;52.050;10.334;2023-11-21T05:35:34;3.30;;;1.90;;
79779;SDS011;69258;52.050;10.334;2023-11-21T05:50:37;4.37;;;1.90;;
79779;SDS011;69258;52.050;10.334;2023-11-21T06:05:41;7.80;;;2.10;;
79779;SDS011;69258;52.050;10.334;2023-11-21T06:20:44;5.80;;;2.10;;
79779;SDS011;69258;52.050;10.334;2023-11-21T06:35:46;4.57;;;1.93;;
79779;SDS011;69258;52.050;10.334;2023-11-21T06:50:52;6.07;;;1.90;;
79779;SDS011;69258;52.050;10.334;2023-11-21T07:05:54;3.10;;;1.80;;
79779;SDS011;69258;52.050;10.334;2023-11-21T07:20:57;2.17;;;1.90;;
79779;SDS011;69258;52.050;10.334;2023-11-21T07:35:59;7.03;;;2.37;;
79779;SDS011;69258;52.050;10.334;2023-11-21T07:51:02;6.20;;;2.10;;
79779;SDS011;69258;52.050;10.334;2023-11-21T08:06:05;4.47;;;2.00;;
79779;SDS011;69258;52.050;10.334;2023-11-21T08:21:07;3.67;;;2.13;;
79779;SDS011;69258;52.050;10.334;2023-11-21T08:36:10;3.17;;;1.80;;
79779;SDS011;69258;52.050;10.334;2023-11-21T08:51:13;4.30;;;2.00;;
79779;SDS011;69258;52.050;10.334;2023-11-21T09:06:16;2.90;;;2.03;;
79779;SDS011;69258;52.050;10.334;2023-11-21T09:21:18;4.13;;;2.30;;
79779;SDS011;69258;52.050;10.334;2023-11-21T09:36:21;4.67;;;2.20;;
79779;SDS011;69258;52.050;10.334;2023-11-21T09:51:23;2.50;;;1.90;;
79779;SDS011;69258;52.050;10.334;2023-11-21T10:06:28;2.10;;;1.90;;
79779;SDS011;69258;52.050;10.334;2023-11-21T10:21:32;5.00;;;1.70;;
79779;SDS011;69258;52.050;10.334;2023-11-21T10:36:35;5.17;;;1.80;;
79779;SDS011;69258;52.050;10.334;2023-11-21T10:51:37;50.13;;;27.87;;
79779;SDS011;69258;52.050;10.334;2023-11-21T11:06:48;78.30;;;43.20;;
79779;SDS011;69258;52.050;10.334;2023-11-21T11:37:13;43.77;;;25.77;;
79779;SDS011;69258;52.050;10.334;2023-11-21T11:52:32;30.97;;;20.90;;
79779;SDS011;69258;52.050;10.334;2023-11-21T12:22:50;25.33;;;15.47;;
79779;SDS011;69258;52.050;10.334;2023-11-21T12:37:54;23.90;;;13.83;;
79779;SDS011;69258;52.050;10.334;2023-11-21T12:52:58;22.50;;;12.40;;
79779;SDS011;69258;52.050;10.334;2023-11-21T13:08:03;20.30;;;11.30;;
79779;SDS011;69258;52.050;10.334;2023-11-21T13:23:10;15.20;;;9.90;;
79779;SDS011;69258;52.050;10.334;2023-11-21T13:38:13;19.13;;;9.97;;
79779;SDS011;69258;52.050;10.334;2023-11-21T13:53:19;13.33;;;8.23;;
79779;SDS011;69258;52.050;10.334;2023-11-21T14:08:21;12.07;;;7.20;;
79779;SDS011;69258;52.050;10.334;2023-11-21T14:23:23;10.50;;;6.27;;
79779;SDS011;69258;52.050;10.334;2023-11-21T14:38:26;10.17;;;5.97;;
79779;SDS011;69258;52.050;10.334;2023-11-21T14:53:28;9.87;;;5.27;;
79779;SDS011;69258;52.050;10.334;2023-11-21T15:08:31;8.60;;;5.20;;
79779;SDS011;69258;52.050;10.334;2023-11-21T15:23:34;8.40;;;5.10;;
79779;SDS011;69258;52.050;10.334;2023-11-21T15:38:36;9.60;;;4.60;;
79779;SDS011;69258;52.050;10.334;2023-11-21T15:53:39;6.87;;;4.17;;
79779;SDS011;69258;52.050;10.334;2023-11-21T16:08:42;5.83;;;4.33;;
79779;SDS011;69258;52.050;10.334;2023-11-21T16:23:44;8.10;;;5.10;;
79779;SDS011;69258;52.050;10.334;2023-11-21T16:38:50;8.40;;;5.03;;
79779;SDS011;69258;52.050;10.334;2023-11-21T16:53:52;7.83;;;5.50;;
79779;SDS011;69258;52.050;10.334;2023-11-21T17:08:54;7.63;;;6.23;;
79779;SDS011;69258;52.050;10.334;2023-11-21T17:23:57;7.30;;;5.73;;
79779;SDS011;69258;52.050;10.334;2023-11-21T17:39:00;8.77;;;6.27;;
79779;SDS011;69258;52.050;10.334;2023-11-21T17:54:03;10.80;;;6.97;;
79779;SDS011;69258;52.050;10.334;2023-11-21T18:09:05;9.17;;;7.10;;
79779;SDS011;69258;52.050;10.334;2023-11-21T18:24:09;8.63;;;6.87;;
79779;SDS011;69258;52.050;10.334;2023-11-21T18:39:12;9.47;;;7.50;;
79779;SDS011;69258;52.050;10.334;2023-11-21T18:54:15;11.33;;;7.10;;
79779;SDS011;69258;52.050;10.334;2023-11-21T19:09:18;7.77;;;6.33;;
79779;SDS011;69258;52.050;10.334;2023-11-21T19:24:21;8.83;;;6.67;;
79779;SDS011;69258;52.050;10.334;2023-11-21T19:39:23;8.23;;;6.20;;
79779;SDS011;69258;52.050;10.334;2023-11-21T19:54:26;10.13;;;6.40;;
79779;SDS011;69258;52.050;10.334;2023-11-21T20:09:29;9.03;;;6.03;;
79779;SDS011;69258;52.050;10.334;2023-11-21T20:24:31;8.60;;;6.10;;
79779;SDS011;69258;52.050;10.334;2023-11-21T20:39:34;8.50;;;5.27;;
79779;SDS011;69258;52.050;10.334;2023-11-21T20:54:37;6.97;;;5.50;;
79779;SDS011;69258;52.050;10.334;2023-11-21T21:09:39;7.50;;;4.93;;
79779;SDS011;69258;52.050;10.334;2023-11-21T21:24:42;10.20;;;5.30;;
79779;SDS011;69258;52.050;10.334;2023-11-21T21:39:44;9.27;;;5.87;;
79779;SDS011;69258;52.050;10.334;2023-11-21T21:54:47;7.23;;;5.00;;
79779;SDS011;69258;52.050;10.334;2023-11-21T22:09:50;7.73;;;5.10;;
79779;SDS011;69258;52.050;10.334;2023-11-21T22:24:53;7.13;;;4.40;;
79779;SDS011;69258;52.050;10.334;2023-11-21T22:39:56;5.23;;;4.67;;
79779;SDS011;69258;52.050;10.334;2023-11-21T22:54:58;8.27;;;4.70;;
79779;SDS011;69258;52.050;10.334;2023-11-21T23:10:00;5.17;;;4.43;;
79779;SDS011;69258;52.050;10.334;2023-11-21T23:25:03;5.63;;;4.40;;
79779;SDS011;69258;52.050;10.334;2023-11-21T23:40:07;4.83;;;3.97;;
79779;SDS011;69258;52.050;10.334;2023-11-21T23:55:10;4.83;;;3.83;;
